Time;durP1;ratioP1;P1;durP2;ratioP2;P2;SDS_P1;SDS_P2;PMS_P1;PMS_P2;Temp;Humidity;BMP_temperature;BMP_pressure;BME280_temperature;BME280_humidity;BME280_pressure;Samples;Min_cycle;Max_cycle;Signal;HPM_P1;HPM_P2
2021/09/16 10:41:45;;;;;;;13.40;7.60;;;;;;;28.83;27.29;99574.75;5062862;28;20607;-70
2021/09/16 10:44:19;;;;;;;9.43;6.40;;;;;;;29.39;24.68;99577.50;5061145;28;20082;-70
2021/09/16 10:46:46;;;;;;;10.45;5.50;;;;;;;29.68;24.35;99579.41;5058207;28;20021;-71
2021/09/16 10:49:21;;;;;;;6.90;5.03;;;;;;;29.93;22.04;99566.22;5052884;28;20399;-70
2021/09/16 10:51:49;;;;;;;5.30;4.80;;;;;;;29.89;23.68;99566.34;5061566;28;20026;-71
2021/09/16 10:54:23;;;;;;;5.32;4.65;;;;;;;30.03;22.07;99564.19;5056146;28;20020;-70
2021/09/16 10:57:06;;;;;;;5.80;3.92;;;;;;;30.12;20.70;99562.22;5048407;28;20093;-72
2021/09/16 10:59:47;;;;;;;5.47;3.45;;;;;;;30.29;20.98;99558.31;5047175;28;20025;-69
2021/09/16 11:02:22;;;;;;;6.68;4.65;;;;;;;30.33;20.37;99551.16;5054381;28;20120;-70
2021/09/16 11:04:54;;;;;;;5.65;3.95;;;;;;;30.43;20.30;99552.00;5042558;28;20408;-71
2021/09/16 11:07:31;;;;;;;6.60;4.05;;;;;;;30.32;20.55;99551.63;5052923;28;20047;-71
2021/09/16 11:10:17;;;;;;;10.10;4.80;;;;;;;30.34;21.17;99549.06;5062608;28;20029;-70
2021/09/16 11:13:05;;;;;;;5.28;4.75;;;;;;;30.48;21.29;99536.16;5034645;28;20081;-70
2021/09/16 11:15:31;;;;;;;6.22;4.57;;;;;;;30.43;20.96;99533.91;5046108;28;20029;-70
2021/09/16 11:18:09;;;;;;;6.28;5.32;;;;;;;30.48;21.78;99534.09;5056902;28;20710;-70
2021/09/16 11:20:36;;;;;;;8.48;4.57;;;;;;;30.85;20.93;99530.59;5045407;28;20013;-70
2021/09/16 11:23:02;;;;;;;8.63;5.72;;;;;;;31.03;21.26;99526.19;5053235;28;20436;-70
2021/09/16 11:25:43;;;;;;;5.53;4.63;;;;;;;31.21;20.74;99520.47;5050918;28;20380;-70
2021/09/16 11:28:09;;;;;;;6.55;4.50;;;;;;;31.40;20.07;99514.75;5044172;28;20029;-70
2021/09/16 11:30:37;;;;;;;7.40;4.55;;;;;;;31.34;20.11;99513.78;5047042;28;20392;-70
2021/09/16 11:33:04;;;;;;;8.02;4.63;;;;;;;31.20;20.20;99510.19;5047518;28;20029;-70
2021/09/16 11:35:29;;;;;;;5.13;4.22;;;;;;;31.12;20.77;99503.09;5040620;28;20063;-70
2021/09/16 11:37:55;;;;;;;4.97;4.45;;;;;;;30.87;20.67;99502.06;5050907;28;20256;-70
2021/09/16 11:40:22;;;;;;;5.50;4.50;;;;;;;30.80;20.50;99494.50;5044098;28;20045;-70
2021/09/16 11:42:54;;;;;;;6.65;4.32;;;;;;;30.98;20.23;99489.28;5041672;28;20396;-70
2021/09/16 11:45:23;;;;;;;7.20;4.10;;;;;;;31.04;19.92;99481.59;5043861;28;20037;-71
2021/09/16 11:47:53;;;;;;;6.50;4.32;;;;;;;30.84;20.74;99482.03;5045196;28;20025;-71
2021/09/16 11:50:25;;;;;;;10.05;4.15;;;;;;;30.78;19.44;99484.75;5055674;28;20424;-71
2021/09/16 11:53:03;;;;;;;5.05;3.50;;;;;;;30.82;18.22;99468.06;5042141;28;20028;-72
2021/09/16 11:55:32;;;;;;;6.32;4.82;;;;;;;30.80;19.80;99467.75;5031806;28;20056;-72
2021/09/16 11:58:14;;;;;;;3.83;3.42;;;;;;;30.89;19.15;99464.88;5039871;28;20032;-72
2021/09/16 12:00:59;;;;;;;12.50;4.15;;;;;;;30.91;18.73;99453.66;5038693;28;20021;-72
2021/09/16 12:03:32;;;;;;;5.13;3.65;;;;;;;31.14;18.17;99453.53;5028513;28;20174;-72
2021/09/16 12:05:59;;;;;;;10.18;4.32;;;;;;;31.16;18.58;99451.78;5022736;28;20415;-72
2021/09/16 12:08:34;;;;;;;22.65;4.70;;;;;;;30.94;19.81;99443.22;5033843;28;20621;-72
2021/09/16 12:11:17;;;;;;;6.78;5.40;;;;;;;31.05;19.23;99439.91;5035438;28;20029;-71
2021/09/16 12:13:50;;;;;;;5.57;4.10;;;;;;;31.24;19.47;99437.88;5029676;28;20053;-71
2021/09/16 12:16:27;;;;;;;4.43;4.03;;;;;;;31.31;19.67;99428.09;5032705;28;20076;-71
2021/09/16 12:18:55;;;;;;;13.13;4.63;;;;;;;31.38;19.40;99422.78;5018702;28;20047;-71
2021/09/16 12:21:42;;;;;;;8.73;4.28;;;;;;;31.63;18.50;99417.97;5033752;28;20135;-71
2021/09/16 12:24:15;;;;;;;6.70;4.20;;;;;;;31.45;19.13;99413.00;5034962;28;20024;-71
2021/09/16 12:26:45;;;;;;;7.78;4.50;;;;;;;31.58;19.11;99415.72;5035955;28;20112;-71
2021/09/16 12:29:12;;;;;;;9.95;4.47;;;;;;;31.53;19.17;99410.56;5036544;28;20033;-71
2021/09/16 12:31:43;;;;;;;5.35;4.68;;;;;;;31.41;19.20;99409.47;5029617;28;20083;-71
2021/09/16 12:34:14;;;;;;;6.80;5.13;;;;;;;31.52;18.58;99409.78;5023854;28;20036;-71
2021/09/16 12:37:03;;;;;;;14.57;5.72;;;;;;;31.69;19.45;99405.75;5024022;28;20021;-70
2021/09/16 12:39:41;;;;;;;13.47;4.93;;;;;;;31.62;19.21;99395.34;5027791;28;20155;-70
2021/09/16 12:42:09;;;;;;;12.65;5.82;;;;;;;31.54;19.06;99400.63;5020858;28;20464;-70
2021/09/16 12:44:36;;;;;;;7.22;4.78;;;;;;;31.69;18.82;99402.88;5027609;28;20057;-70
2021/09/16 12:47:05;;;;;;;7.30;3.97;;;;;;;31.66;18.20;99390.19;5033743;28;20507;-70
2021/09/16 12:49:42;;;;;;;10.43;5.75;;;;;;;31.72;18.32;99396.13;5024321;28;20049;-71
2021/09/16 12:52:24;;;;;;;15.65;5.22;;;;;;;31.69;18.98;99388.41;5028393;28;20178;-71
2021/09/16 12:54:54;;;;;;;7.07;4.40;;;;;;;31.64;19.18;99384.09;5027305;28;20024;-71
2021/09/16 12:57:26;;;;;;;7.47;4.70;;;;;;;31.73;18.69;99386.16;5023516;28;20095;-71
2021/09/16 12:59:53;;;;;;;26.60;5.90;;;;;;;32.04;18.28;99380.16;5018567;28;20488;-71
2021/09/16 13:02:23;;;;;;;7.50;4.22;;;;;;;32.08;17.76;99380.78;5024049;28;20061;-71
2021/09/16 13:04:59;;;;;;;4.68;4.10;;;;;;;31.94;18.73;99372.81;5032603;28;20083;-71
2021/09/16 13:07:32;;;;;;;6.35;4.88;;;;;;;31.87;18.70;99376.84;5015620;28;20041;-71
2021/09/16 13:10:12;;;;;;;17.15;5.55;;;;;;;31.90;18.19;99381.63;5020992;28;20033;-71
2021/09/16 13:12:40;;;;;;;7.38;4.65;;;;;;;31.93;18.44;99374.09;5026021;28;20030;-71
2021/09/16 13:15:08;;;;;;;6.15;4.43;;;;;;;31.83;18.67;99366.72;5023919;28;20061;-71
2021/09/16 13:17:34;;;;;;;8.55;4.43;;;;;;;31.78;19.76;99371.84;5021759;28;20034;-71
2021/09/16 13:19:59;;;;;;;9.18;5.25;;;;;;;31.79;18.92;99376.38;5026891;28;20053;-71
2021/09/16 13:22:25;;;;;;;11.20;4.18;;;;;;;31.84;18.79;99365.44;5033879;28;20071;-71
2021/09/16 13:24:54;;;;;;;5.22;4.45;;;;;;;31.71;19.26;99380.06;5027849;28;20025;-71
2021/09/16 13:27:20;;;;;;;9.63;4.20;;;;;;;31.95;18.57;99371.50;5023221;28;20036;-71
2021/09/16 13:29:45;;;;;;;5.10;4.43;;;;;;;31.69;19.44;99366.09;5020334;28;20029;-71
2021/09/16 13:32:11;;;;;;;10.88;4.60;;;;;;;31.57;19.07;99369.97;5025946;28;20025;-71
2021/09/16 13:34:36;;;;;;;17.15;5.35;;;;;;;31.50;19.40;99365.31;5028066;28;20026;-71
2021/09/16 13:37:02;;;;;;;5.50;4.40;;;;;;;31.45;19.84;99366.75;5029796;28;20488;-71
2021/09/16 13:39:27;;;;;;;12.82;8.63;;;;;;;31.44;20.08;99365.16;5029437;28;20049;-71
2021/09/16 13:41:54;;;;;;;29.80;15.35;;;;;;;31.35;19.40;99365.97;5035119;28;20041;-71
2021/09/16 13:44:21;;;;;;;9.32;5.53;;;;;;;31.40;18.89;99360.81;5040570;28;20079;-71
2021/09/16 13:46:48;;;;;;;34.17;24.50;;;;;;;31.49;19.32;99358.72;5027484;28;20480;-71
2021/09/16 13:49:14;;;;;;;15.30;10.55;;;;;;;31.36;19.04;99355.22;5029755;28;20492;-71
2021/09/16 13:51:39;;;;;;;16.95;5.38;;;;;;;31.62;19.30;99352.00;5033561;28;20100;-71
2021/09/16 13:54:04;;;;;;;13.15;4.93;;;;;;;31.67;18.88;99339.75;5031116;28;20032;-71
2021/09/16 13:56:30;;;;;;;8.63;4.68;;;;;;;31.66;18.45;99349.72;5033565;28;20025;-71
2021/09/16 13:58:56;;;;;;;10.93;5.25;;;;;;;31.76;18.65;99351.31;5031880;28;20441;-71
2021/09/16 14:01:22;;;;;;;5.35;4.47;;;;;;;31.86;18.95;99351.31;5028426;28;20021;-71
2021/09/16 14:03:48;;;;;;;12.18;4.55;;;;;;;31.91;18.28;99347.75;5026759;28;20083;-71
2021/09/16 14:06:14;;;;;;;35.05;17.45;;;;;;;31.88;19.45;99346.63;5023482;28;20463;-71
2021/09/16 14:08:40;;;;;;;6.40;5.65;;;;;;;31.79;19.32;99347.47;5029466;28;20109;-71
2021/09/16 14:11:06;;;;;;;6.72;5.25;;;;;;;31.63;19.56;99345.72;5022438;28;20796;-71
2021/09/16 14:13:32;;;;;;;38.90;28.17;;;;;;;31.71;19.55;99351.16;5028054;28;20037;-71
2021/09/16 14:15:57;;;;;;;31.95;24.25;;;;;;;31.51;18.73;99350.41;5018864;28;20475;-71
2021/09/16 14:18:23;;;;;;;30.38;19.02;;;;;;;31.37;19.84;99346.06;5028138;28;20515;-71
2021/09/16 14:20:48;;;;;;;37.28;23.25;;;;;;;31.52;19.74;99348.28;5017660;28;20118;-71
2021/09/16 14:23:14;;;;;;;29.02;12.15;;;;;;;31.46;19.83;99347.34;5021284;28;20029;-71
2021/09/16 14:25:39;;;;;;;23.05;12.93;;;;;;;31.40;19.57;99341.41;5026199;28;20030;-71
2021/09/16 14:28:05;;;;;;;17.42;7.13;;;;;;;31.41;19.46;99343.03;5024809;28;20556;-71
2021/09/16 14:30:30;;;;;;;12.35;6.63;;;;;;;31.50;19.40;99343.03;5034706;28;20160;-72
2021/09/16 14:32:56;;;;;;;26.27;10.00;;;;;;;31.50;19.59;99345.91;5027038;28;20435;-71
2021/09/16 14:35:21;;;;;;;11.77;5.88;;;;;;;31.54;19.15;99339.16;5033038;28;20707;-71
2021/09/16 14:37:47;;;;;;;13.52;5.68;;;;;;;31.59;19.42;99332.72;5023382;28;20090;-71
2021/09/16 14:40:13;;;;;;;11.20;5.65;;;;;;;31.52;18.96;99337.56;5024416;28;20470;-71
2021/09/16 14:42:38;;;;;;;16.70;7.20;;;;;;;31.61;19.50;99335.91;5023310;28;20017;-71
2021/09/16 14:45:05;;;;;;;11.35;8.50;;;;;;;31.56;19.08;99330.78;5027426;28;20025;-71
2021/09/16 14:47:31;;;;;;;37.53;23.33;;;;;;;31.37;19.39;99351.03;5038023;28;20502;-74
2021/09/16 14:49:56;;;;;;;23.52;14.43;;;;;;;31.32;18.77;99345.91;5029014;28;20048;-73
2021/09/16 14:52:22;;;;;;;29.40;17.75;;;;;;;31.18;19.36;99344.44;5035959;28;20029;-70
2021/09/16 14:54:47;;;;;;;29.52;16.88;;;;;;;31.16;20.50;99344.94;5033023;28;20029;-73
2021/09/16 14:57:13;;;;;;;16.30;10.55;;;;;;;31.20;20.58;99345.56;5025274;28;20383;-72
2021/09/16 14:59:38;;;;;;;11.25;7.53;;;;;;;31.15;20.23;99339.63;5025930;28;20025;-72
2021/09/16 15:02:04;;;;;;;9.57;6.82;;;;;;;31.16;19.91;99342.03;5025797;28;20021;-72
2021/09/16 15:04:29;;;;;;;9.75;6.25;;;;;;;31.26;19.36;99344.97;5035342;28;20040;-71
2021/09/16 15:06:54;;;;;;;15.10;6.05;;;;;;;31.24;20.41;99343.34;5033161;28;20026;-73
2021/09/16 15:09:20;;;;;;;15.18;9.07;;;;;;;31.27;20.40;99335.03;5038929;28;20017;-72
2021/09/16 15:11:46;;;;;;;17.60;5.35;;;;;;;31.18;20.70;99347.31;5031013;28;20064;-72
2021/09/16 15:14:11;;;;;;;21.15;11.05;;;;;;;31.24;19.92;99340.44;5047563;28;20448;-73
2021/09/16 15:16:37;;;;;;;17.40;10.98;;;;;;;31.03;20.65;99350.06;5029523;28;20038;-72
2021/09/16 15:19:02;;;;;;;26.27;17.58;;;;;;;30.88;20.60;99342.00;5028226;28;20033;-69
2021/09/16 15:21:28;;;;;;;35.00;18.17;;;;;;;30.90;20.65;99348.13;5027707;28;20183;-70
2021/09/16 15:23:54;;;;;;;25.40;15.02;;;;;;;30.96;21.15;99349.09;5020472;28;20091;-70
2021/09/16 15:26:19;;;;;;;13.77;9.73;;;;;;;30.87;21.51;99349.06;5027794;28;20021;-70
2021/09/16 15:28:45;;;;;;;18.90;13.27;;;;;;;30.65;21.48;99341.38;5033782;28;20416;-70
2021/09/16 15:31:10;;;;;;;22.38;13.55;;;;;;;30.79;21.58;99348.59;5030322;28;20108;-70
2021/09/16 15:33:36;;;;;;;13.00;8.27;;;;;;;30.68;21.51;99348.25;5028767;28;20025;-70
2021/09/16 15:36:02;;;;;;;20.02;7.88;;;;;;;30.64;21.29;99344.72;5038235;28;20039;-70
2021/09/16 15:38:31;;;;;;;12.90;6.63;;;;;;;30.63;21.77;99340.19;5035476;28;20064;-70
2021/09/16 15:40:57;;;;;;;18.35;7.70;;;;;;;30.56;21.84;99338.44;5040792;28;20090;-70
2021/09/16 15:43:24;;;;;;;9.98;6.78;;;;;;;30.51;21.58;99339.84;5036669;28;20438;-70
2021/09/16 15:45:49;;;;;;;10.85;5.15;;;;;;;30.50;21.72;99343.19;5038784;28;20029;-70
2021/09/16 15:48:16;;;;;;;14.93;6.75;;;;;;;30.42;21.40;99350.56;5032233;28;20033;-70
2021/09/16 15:50:42;;;;;;;18.30;6.25;;;;;;;30.46;22.00;99360.66;5030610;28;20029;-70
2021/09/16 15:53:08;;;;;;;23.33;5.53;;;;;;;30.42;22.29;99353.47;5031570;28;20113;-70
2021/09/16 15:55:34;;;;;;;21.17;6.15;;;;;;;30.29;22.38;99357.25;5050455;28;20123;-70
2021/09/16 15:57:59;;;;;;;21.60;6.97;;;;;;;30.31;22.67;99366.25;5036376;28;20049;-70
2021/09/16 16:00:25;;;;;;;20.80;7.43;;;;;;;30.29;22.73;99357.25;5039724;28;20433;-70
2021/09/16 16:02:50;;;;;;;24.48;8.40;;;;;;;30.23;22.59;99365.72;5041361;28;20035;-70
2021/09/16 16:05:16;;;;;;;21.98;6.55;;;;;;;30.16;23.12;99359.44;5033261;28;20400;-70
2021/09/16 16:07:43;;;;;;;30.65;7.38;;;;;;;30.02;23.74;99361.56;5041820;28;20044;-70
2021/09/16 16:10:09;;;;;;;46.53;7.55;;;;;;;29.85;24.05;99361.00;5045828;28;20502;-71
2021/09/16 16:12:36;;;;;;;22.98;7.57;;;;;;;29.80;24.70;99364.50;5032015;28;20569;-70
2021/09/16 16:15:06;;;;;;;22.02;7.20;;;;;;;29.75;24.43;99363.03;5032334;28;20032;-71
2021/09/16 16:17:32;;;;;;;21.63;5.65;;;;;;;29.58;24.44;99368.22;5034455;28;20017;-70
2021/09/16 16:19:58;;;;;;;20.27;6.38;;;;;;;29.51;24.46;99369.28;5033768;28;20447;-72
2021/09/16 16:22:24;;;;;;;13.35;5.47;;;;;;;29.29;24.96;99372.13;5032476;28;20083;-71
2021/09/16 16:24:50;;;;;;;17.45;7.28;;;;;;;29.17;25.00;99373.78;5031936;28;20099;-71
2021/09/16 16:27:16;;;;;;;28.42;14.27;;;;;;;29.11;24.95;99369.91;5035940;28;20523;-70
2021/09/16 16:29:41;;;;;;;24.95;11.93;;;;;;;29.13;24.83;99378.88;5031894;28;20048;-71
2021/09/16 16:32:07;;;;;;;18.58;10.20;;;;;;;29.07;24.85;99375.78;5033918;28;20533;-71
2021/09/16 16:34:33;;;;;;;17.80;9.88;;;;;;;29.09;25.37;99383.97;5033947;28;20021;-72
2021/09/16 16:36:58;;;;;;;27.35;7.78;;;;;;;29.02;25.36;99381.31;5029536;28;20079;-73
2021/09/16 16:39:24;;;;;;;15.48;6.25;;;;;;;28.88;25.60;99374.81;5021453;28;20477;-72
2021/09/16 16:41:49;;;;;;;16.00;5.93;;;;;;;28.75;26.02;99379.75;5036053;28;20036;-71
2021/09/16 16:44:15;;;;;;;19.23;6.15;;;;;;;28.70;26.13;99373.31;5031133;28;20121;-69
2021/09/16 16:46:40;;;;;;;18.52;6.20;;;;;;;28.58;26.37;99383.56;5023738;28;20037;-69
2021/09/16 16:49:06;;;;;;;12.73;6.85;;;;;;;28.54;26.23;99380.03;5025596;28;20026;-70
2021/09/16 16:51:31;;;;;;;36.28;8.38;;;;;;;28.52;26.80;99384.63;5028523;28;20017;-73
2021/09/16 16:53:57;;;;;;;21.88;6.60;;;;;;;28.44;26.98;99386.94;5034728;28;20028;-69
2021/09/16 16:56:22;;;;;;;42.17;6.75;;;;;;;28.29;27.38;99390.25;5039181;28;20115;-69
2021/09/16 16:58:48;;;;;;;29.67;6.93;;;;;;;28.21;27.68;99394.63;5036131;28;20034;-69
2021/09/16 17:01:13;;;;;;;16.85;6.53;;;;;;;28.12;27.78;99398.16;5036925;28;20092;-68
2021/09/16 17:03:39;;;;;;;13.70;5.90;;;;;;;27.98;28.27;99393.66;5037538;28;20032;-69
2021/09/16 17:06:04;;;;;;;13.13;5.78;;;;;;;27.80;28.94;99404.88;5041707;28;20144;-70
2021/09/16 17:08:29;;;;;;;17.75;5.93;;;;;;;27.72;28.87;99407.16;5031687;28;20484;-70
2021/09/16 17:10:55;;;;;;;6.30;5.65;;;;;;;27.64;29.40;99420.13;5024322;28;20030;-70
2021/09/16 17:13:21;;;;;;;11.35;6.22;;;;;;;27.53;29.95;99414.66;5028565;28;20131;-70
2021/09/16 17:15:47;;;;;;;26.27;7.68;;;;;;;27.38;29.82;99422.84;5032346;28;20025;-70
2021/09/16 17:18:13;;;;;;;11.52;7.63;;;;;;;27.31;30.23;99424.69;5030199;28;20735;-69
2021/09/16 17:20:38;;;;;;;13.27;6.63;;;;;;;27.26;30.79;99430.94;5026202;28;20021;-70
2021/09/16 17:23:04;;;;;;;12.13;6.72;;;;;;;27.17;31.29;99431.59;5035179;28;20017;-70
2021/09/16 17:25:30;;;;;;;16.55;7.25;;;;;;;27.05;31.72;99435.22;5032939;28;20032;-70
2021/09/16 17:27:57;;;;;;;25.65;8.45;;;;;;;26.89;31.93;99433.97;5041082;28;20017;-70
2021/09/16 17:30:23;;;;;;;22.05;7.80;;;;;;;26.87;32.14;99438.53;5036292;28;20029;-71
2021/09/16 17:32:49;;;;;;;17.33;7.93;;;;;;;26.82;32.26;99436.19;5038962;28;20053;-70
2021/09/16 17:35:16;;;;;;;18.45;9.10;;;;;;;26.72;32.26;99438.88;5029457;28;20018;-70
2021/09/16 17:37:42;;;;;;;26.02;9.20;;;;;;;26.59;32.39;99446.56;5038731;28;20083;-70
2021/09/16 17:40:09;;;;;;;18.15;8.35;;;;;;;26.43;32.86;99447.34;5031720;28;20483;-70
2021/09/16 17:42:34;;;;;;;25.83;7.90;;;;;;;26.30;33.55;99455.81;5027343;28;20423;-68
2021/09/16 17:45:00;;;;;;;31.67;9.40;;;;;;;26.30;33.84;99450.91;5031575;28;20056;-72
2021/09/16 17:47:25;;;;;;;43.55;11.88;;;;;;;26.24;33.97;99461.28;5038099;28;20035;-70
2021/09/16 17:49:51;;;;;;;25.00;10.00;;;;;;;26.13;33.42;99469.28;5027528;28;20032;-69
2021/09/16 17:52:20;;;;;;;35.75;11.93;;;;;;;26.12;33.78;99462.75;5030522;28;20130;-69
2021/09/16 17:54:47;;;;;;;29.55;13.27;;;;;;;26.16;33.88;99469.19;5038487;28;20055;-69
2021/09/16 17:57:13;;;;;;;22.20;12.07;;;;;;;26.16;33.32;99468.41;5042906;28;20137;-69
2021/09/16 17:59:38;;;;;;;25.83;12.75;;;;;;;26.10;33.43;99485.31;5046607;28;20028;-69
2021/09/16 18:02:05;;;;;;;27.60;14.18;;;;;;;26.08;33.86;99482.09;5041129;28;20017;-69
2021/09/16 18:04:30;;;;;;;28.15;15.73;;;;;;;25.92;34.46;99480.75;5034995;28;20028;-69
2021/09/16 18:06:56;;;;;;;33.65;16.85;;;;;;;25.86;34.60;99482.53;5031608;28;20478;-69
2021/09/16 18:09:21;;;;;;;28.67;15.70;;;;;;;25.78;35.16;99483.91;5041270;28;20090;-70
2021/09/16 18:11:47;;;;;;;33.08;15.15;;;;;;;25.74;35.30;99481.09;5031677;28;20474;-71
2021/09/16 18:14:13;;;;;;;27.15;14.35;;;;;;;25.66;35.40;99493.97;5044254;28;20027;-71
2021/09/16 18:16:39;;;;;;;27.40;13.57;;;;;;;25.68;35.82;99490.66;5035260;28;20491;-71
2021/09/16 18:19:04;;;;;;;47.50;13.82;;;;;;;25.45;35.87;99498.00;5026862;28;20035;-70
2021/09/16 18:21:30;;;;;;;48.42;13.05;;;;;;;25.54;35.86;99500.34;5011742;28;20585;-70
2021/09/16 18:23:55;;;;;;;32.95;12.38;;;;;;;25.43;36.22;99506.22;5025729;28;20032;-71
2021/09/16 18:26:21;;;;;;;39.88;11.73;;;;;;;25.32;36.29;99501.50;5034025;28;20136;-70
2021/09/16 18:28:47;;;;;;;32.35;10.77;;;;;;;25.22;36.30;99496.78;5036074;28;20048;-70
2021/09/16 18:31:12;;;;;;;24.48;10.85;;;;;;;25.29;35.75;99490.91;5035208;28;20020;-70
2021/09/16 18:33:38;;;;;;;21.33;8.88;;;;;;;25.23;35.37;99489.81;5041105;28;20021;-70
2021/09/16 18:36:03;;;;;;;23.80;9.98;;;;;;;25.03;36.26;99492.59;5040771;28;20495;-70
2021/09/16 18:38:29;;;;;;;33.58;15.88;;;;;;;24.85;37.16;99495.75;5030768;28;20045;-70
2021/09/16 18:40:54;;;;;;;48.42;27.98;;;;;;;24.74;38.04;99495.91;5037941;28;20041;-70
2021/09/16 18:43:20;;;;;;;113.95;70.32;;;;;;;24.71;37.69;99496.75;5041020;28;20021;-70
2021/09/16 18:45:45;;;;;;;181.32;116.15;;;;;;;24.57;37.81;99497.78;5031938;28;20373;-70
2021/09/16 18:48:12;;;;;;;315.88;248.93;;;;;;;24.75;36.43;99497.50;5030760;28;20032;-71
2021/09/16 18:50:38;;;;;;;320.73;250.32;;;;;;;24.77;36.26;99506.50;5030048;28;20025;-70
2021/09/16 18:53:03;;;;;;;245.93;170.90;;;;;;;24.84;35.85;99499.84;5034599;28;20048;-70
2021/09/16 18:55:31;;;;;;;164.48;109.15;;;;;;;24.58;36.22;99496.53;5032372;28;20064;-70
2021/09/16 18:57:56;;;;;;;83.05;59.03;;;;;;;24.27;36.66;99500.22;5034496;28;20027;-70
2021/09/16 19:00:22;;;;;;;48.92;30.92;;;;;;;24.30;36.30;99501.44;5029765;28;20021;-70
2021/09/16 19:02:48;;;;;;;45.92;26.10;;;;;;;24.20;37.68;99504.00;5034041;28;20030;-70
2021/09/16 19:05:14;;;;;;;28.80;17.33;;;;;;;24.10;37.60;99510.66;5030484;28;20132;-70
2021/09/16 19:07:41;;;;;;;29.67;22.55;;;;;;;24.07;37.67;99500.91;5034500;28;20108;-70
2021/09/16 19:10:09;;;;;;;27.05;14.82;;;;;;;23.97;37.76;99498.97;5029591;28;20056;-70
2021/09/16 19:12:36;;;;;;;18.83;11.63;;;;;;;23.88;37.81;99496.59;5022602;28;20032;-70
2021/09/16 19:15:01;;;;;;;21.48;10.35;;;;;;;23.76;37.82;99497.16;5024992;28;20037;-70
2021/09/16 19:17:27;;;;;;;17.45;9.77;;;;;;;23.89;38.02;99498.25;5033402;28;20057;-70
2021/09/16 19:19:52;;;;;;;14.65;9.07;;;;;;;23.98;37.95;99501.38;5025383;28;20036;-70
2021/09/16 19:22:18;;;;;;;22.10;9.90;;;;;;;23.93;38.57;99498.19;5026049;28;20042;-70
2021/09/16 19:24:43;;;;;;;19.10;8.95;;;;;;;24.03;38.73;99505.00;5028235;28;20083;-70
2021/09/16 19:27:09;;;;;;;12.90;8.90;;;;;;;24.00;37.75;99503.00;5026938;28;20053;-70
2021/09/16 19:29:34;;;;;;;19.80;9.25;;;;;;;23.86;38.32;99513.34;5024810;28;20464;-70
2021/09/16 19:32:00;;;;;;;16.73;9.10;;;;;;;24.21;38.02;99507.66;5025720;28;20029;-70
2021/09/16 19:34:26;;;;;;;15.55;8.32;;;;;;;24.16;38.05;99503.25;5022424;28;20021;-70
2021/09/16 19:36:54;;;;;;;22.35;9.60;;;;;;;24.12;38.11;99508.16;5028454;28;20045;-70
2021/09/16 19:39:21;;;;;;;18.20;8.65;;;;;;;24.11;37.96;99512.25;5025104;28;20053;-70
2021/09/16 19:41:46;;;;;;;16.23;8.73;;;;;;;24.26;37.08;99510.03;5023772;28;20099;-70
2021/09/16 19:44:12;;;;;;;18.95;8.40;;;;;;;24.28;37.70;99518.19;5025353;28;20463;-70
2021/09/16 19:46:37;;;;;;;20.13;8.15;;;;;;;24.30;37.85;99525.09;5022949;28;20515;-70
2021/09/16 19:49:03;;;;;;;14.00;8.70;;;;;;;24.20;37.47;99520.34;5025704;28;20039;-70
2021/09/16 19:51:29;;;;;;;12.55;7.65;;;;;;;24.20;37.29;99526.84;5021524;28;20411;-70
2021/09/16 19:53:55;;;;;;;16.65;8.05;;;;;;;24.27;36.84;99516.56;5021912;28;20071;-70
2021/09/16 19:56:23;;;;;;;17.33;8.35;;;;;;;24.28;36.32;99519.00;5026155;28;20033;-70
2021/09/16 19:58:49;;;;;;;19.77;8.85;;;;;;;24.32;36.49;99530.38;5023608;28;20440;-71
2021/09/16 20:01:16;;;;;;;15.10;8.18;;;;;;;24.39;36.30;99536.00;5022582;28;20025;-71
2021/09/16 20:03:42;;;;;;;17.75;8.75;;;;;;;24.35;36.34;99535.22;5024765;28;20033;-71
2021/09/16 20:06:08;;;;;;;17.20;7.65;;;;;;;24.32;36.70;99538.94;5035002;28;20788;-71
2021/09/16 20:08:34;;;;;;;14.23;8.18;;;;;;;24.31;37.25;99543.06;5023631;28;20021;-70
2021/09/16 20:11:00;;;;;;;18.60;8.57;;;;;;;24.25;37.07;99540.69;5022083;28;20021;-70
2021/09/16 20:13:25;;;;;;;12.25;8.20;;;;;;;24.20;37.35;99546.84;5030211;28;20048;-71
2021/09/16 20:15:50;;;;;;;21.70;8.98;;;;;;;24.19;37.13;99544.41;5026030;28;20028;-71
2021/09/16 20:18:16;;;;;;;20.88;8.52;;;;;;;24.16;37.57;99550.97;5027889;28;20033;-71
2021/09/16 20:20:41;;;;;;;19.45;8.82;;;;;;;24.22;37.52;99535.78;5023445;28;20518;-71
2021/09/16 20:23:07;;;;;;;16.98;9.32;;;;;;;24.33;36.88;99546.28;5020905;28;20037;-71
2021/09/16 20:25:32;;;;;;;13.90;9.65;;;;;;;24.36;36.81;99551.13;5023895;28;20114;-71
2021/09/16 20:27:58;;;;;;;30.55;20.17;;;;;;;24.36;36.99;99551.13;5030758;28;20017;-71
2021/09/16 20:30:23;;;;;;;44.28;22.75;;;;;;;24.26;37.17;99547.19;5039222;28;20033;-71
2021/09/16 20:32:49;;;;;;;32.35;18.10;;;;;;;24.20;37.17;99546.06;5041310;28;20090;-71
2021/09/16 20:35:14;;;;;;;25.67;14.40;;;;;;;24.18;37.01;99537.91;5041428;28;20025;-71
2021/09/16 20:37:41;;;;;;;34.95;15.40;;;;;;;24.09;37.41;99549.03;5045228;28;20044;-71
2021/09/16 20:40:09;;;;;;;23.45;13.07;;;;;;;23.94;37.94;99543.44;5034904;28;20045;-71
2021/09/16 20:42:35;;;;;;;23.17;10.38;;;;;;;23.92;38.07;99534.50;5048357;28;20107;-71
2021/09/16 20:45:01;;;;;;;23.20;10.18;;;;;;;23.79;38.21;99544.84;5046386;28;20150;-71
2021/09/16 20:47:27;;;;;;;25.92;11.27;;;;;;;23.77;39.09;99545.28;5049312;28;20040;-71
2021/09/16 20:49:53;;;;;;;22.92;9.80;;;;;;;23.60;39.21;99538.50;5041275;28;20020;-71
2021/09/16 20:52:19;;;;;;;16.80;10.20;;;;;;;23.67;39.06;99535.59;5044060;28;20021;-71
2021/09/16 20:54:44;;;;;;;21.00;9.98;;;;;;;23.69;38.79;99535.97;5033532;28;20504;-71
2021/09/16 20:57:10;;;;;;;25.75;11.20;;;;;;;23.69;38.99;99533.13;5026340;28;20057;-71
2021/09/16 20:59:38;;;;;;;25.40;10.88;;;;;;;23.72;39.43;99534.31;5029070;28;20025;-71
2021/09/16 21:02:05;;;;;;;14.23;9.80;;;;;;;23.62;39.37;99536.03;5027558;28;20025;-71
2021/09/16 21:04:31;;;;;;;13.77;9.52;;;;;;;23.71;39.76;99535.53;5032329;28;20668;-71
2021/09/16 21:06:56;;;;;;;23.33;9.85;;;;;;;23.73;40.32;99544.50;5031970;28;20063;-71
2021/09/16 21:09:22;;;;;;;20.50;9.43;;;;;;;23.79;40.11;99539.16;5027911;28;20024;-71
2021/09/16 21:11:47;;;;;;;20.00;9.60;;;;;;;23.83;39.49;99535.03;5032102;28;20384;-71
2021/09/16 21:14:13;;;;;;;18.52;10.05;;;;;;;23.96;39.83;99525.91;5031388;28;20013;-71
2021/09/16 21:16:38;;;;;;;19.58;10.23;;;;;;;24.02;39.78;99526.25;5032062;28;20037;-71
2021/09/16 21:19:03;;;;;;;21.23;11.52;;;;;;;23.96;39.59;99520.97;5033661;28;20020;-71
2021/09/16 21:21:29;;;;;;;29.65;11.68;;;;;;;23.92;39.95;99520.22;5031497;28;20475;-71
2021/09/16 21:23:55;;;;;;;23.80;11.00;;;;;;;23.80;40.23;99523.63;5033461;28;20822;-71
2021/09/16 21:26:20;;;;;;;20.10;11.35;;;;;;;23.69;40.89;99530.25;5033616;28;20083;-71
2021/09/16 21:28:45;;;;;;;21.88;11.02;;;;;;;23.75;40.55;99533.47;5033128;28;20138;-71
2021/09/16 21:31:11;;;;;;;13.88;10.32;;;;;;;23.62;40.85;99518.91;5036081;28;20526;-71
2021/09/16 21:33:37;;;;;;;18.45;10.30;;;;;;;23.62;40.88;99524.63;5031223;28;20554;-71
2021/09/16 21:36:02;;;;;;;20.27;10.65;;;;;;;23.44;40.98;99524.00;5034297;28;20025;-71
2021/09/16 21:38:28;;;;;;;11.32;8.95;;;;;;;23.62;40.72;99523.81;5035695;28;20018;-71
2021/09/16 21:40:54;;;;;;;12.98;9.50;;;;;;;23.64;40.65;99524.22;5036803;28;20048;-71
2021/09/16 21:43:19;;;;;;;14.80;10.13;;;;;;;23.53;41.08;99524.28;5036592;28;20435;-71
2021/09/16 21:45:45;;;;;;;18.33;10.73;;;;;;;23.33;41.76;99527.75;5036439;28;20037;-71
2021/09/16 21:48:10;;;;;;;17.80;11.00;;;;;;;23.22;41.99;99532.72;5034454;28;20116;-71
2021/09/16 21:50:36;;;;;;;23.75;10.30;;;;;;;23.25;41.59;99532.69;5040249;28;20017;-71
2021/09/16 21:53:02;;;;;;;14.18;9.38;;;;;;;23.22;41.55;99524.16;5033300;28;20080;-71
2021/09/16 21:55:27;;;;;;;14.50;10.13;;;;;;;23.40;41.14;99518.31;5038818;28;20045;-71
2021/09/16 21:57:53;;;;;;;19.55;9.93;;;;;;;23.51;40.65;99519.03;5044936;28;20021;-71
2021/09/16 22:00:18;;;;;;;12.32;9.02;;;;;;;23.55;40.49;99510.44;5040592;28;20025;-71
2021/09/16 22:02:44;;;;;;;13.82;9.65;;;;;;;23.54;40.37;99517.38;5046692;28;20025;-70
2021/09/16 22:05:12;;;;;;;14.85;9.35;;;;;;;23.25;41.17;99520.47;5037223;28;20025;-70